createdAt,value
2023-01-08T00:01:11.790Z,3.78
2023-01-08T00:03:40.725Z,3.67
2023-01-08T00:06:11.859Z,3.67
2023-01-08T00:08:39.721Z,3.83
2023-01-08T00:11:07.793Z,3.20
2023-01-08T00:13:36.084Z,3.28
2023-01-08T00:16:05.303Z,3.80
2023-01-08T00:18:34.573Z,3.47
2023-01-08T00:21:03.154Z,3.42
2023-01-08T00:23:31.629Z,3.42
2023-01-08T00:26:02.326Z,3.47
2023-01-08T00:28:31.030Z,3.60
2023-01-08T00:30:59.131Z,3.60
2023-01-08T00:33:27.209Z,3.80
2023-01-08T00:35:56.502Z,3.10
2023-01-08T00:38:26.975Z,3.03
2023-01-08T00:40:55.000Z,3.67
2023-01-08T00:43:23.052Z,4.07
2023-01-08T00:45:51.893Z,3.58
2023-01-08T00:48:19.754Z,3.72
2023-01-08T00:50:47.607Z,3.55
2023-01-08T00:53:17.123Z,3.78
2023-01-08T00:55:45.201Z,3.65
2023-01-08T00:58:13.647Z,4.10
2023-01-08T01:00:41.516Z,3.15
2023-01-08T01:03:09.396Z,3.72
2023-01-08T01:05:37.286Z,3.35
2023-01-08T01:08:05.561Z,4.07
2023-01-08T01:10:34.779Z,3.80
2023-01-08T01:13:02.700Z,4.03
2023-01-08T01:15:30.604Z,3.90
2023-01-08T01:17:58.520Z,3.60
2023-01-08T01:20:26.448Z,4.32
2023-01-08T01:22:54.289Z,4.30
2023-01-08T01:25:22.214Z,4.03
2023-01-08T01:27:51.479Z,3.88
2023-01-08T01:30:19.337Z,3.50
2023-01-08T01:32:47.253Z,3.75
2023-01-08T01:35:15.310Z,3.63
2023-01-08T01:37:43.178Z,3.53
2023-01-08T01:40:12.058Z,3.70
2023-01-08T01:42:44.127Z,3.80
2023-01-08T01:45:21.151Z,3.55
2023-01-08T01:47:53.805Z,4.03
2023-01-08T01:50:26.856Z,4.63
2023-01-08T01:53:02.176Z,4.28
2023-01-08T01:55:31.749Z,4.65
2023-01-08T01:58:05.509Z,4.05
2023-01-08T02:00:36.150Z,4.03
2023-01-08T02:03:06.921Z,3.95
2023-01-08T02:05:44.590Z,4.40
2023-01-08T02:08:14.316Z,4.30
2023-01-08T02:10:49.121Z,4.30
2023-01-08T02:13:24.092Z,4.95
2023-01-08T02:15:59.263Z,4.50
2023-01-08T02:18:33.678Z,4.60
2023-01-08T02:21:08.878Z,4.50
2023-01-08T02:23:46.472Z,4.78
2023-01-08T02:26:20.146Z,4.38
2023-01-08T02:28:53.817Z,4.70
2023-01-08T02:31:24.009Z,4.45
2023-01-08T02:33:51.849Z,5.10
2023-01-08T02:36:31.514Z,4.70
2023-01-08T02:39:09.920Z,4.25
2023-01-08T02:41:49.078Z,4.90
2023-01-08T02:44:22.778Z,4.70
2023-01-08T02:46:53.341Z,4.97
2023-01-08T02:49:24.681Z,5.00
2023-01-08T02:51:56.482Z,4.57
2023-01-08T02:54:28.995Z,4.93
2023-01-08T02:57:02.298Z,3.77
2023-01-08T03:02:01.943Z,4.97
2023-01-08T03:04:35.156Z,4.43
2023-01-08T03:07:03.705Z,4.57
2023-01-08T03:09:31.891Z,4.70
2023-01-08T03:12:06.153Z,5.28
2023-01-08T03:14:41.125Z,4.90
2023-01-08T03:17:15.630Z,5.20
2023-01-08T03:19:46.273Z,4.68
2023-01-08T03:22:17.552Z,4.88
2023-01-08T03:24:49.480Z,4.72
2023-01-08T03:27:25.766Z,5.00
2023-01-08T03:29:56.527Z,5.13
2023-01-08T03:32:26.487Z,5.35
2023-01-08T03:34:57.175Z,5.07
2023-01-08T03:37:29.401Z,5.20
2023-01-08T03:40:00.282Z,5.50
2023-01-08T03:42:32.451Z,5.25
2023-01-08T03:45:00.641Z,5.40
2023-01-08T03:47:30.152Z,6.20
2023-01-08T03:50:01.598Z,5.15
2023-01-08T03:52:32.797Z,5.25
2023-01-08T03:55:00.974Z,4.85
2023-01-08T03:57:30.178Z,5.60
2023-01-08T03:59:58.035Z,5.72
2023-01-08T04:02:26.008Z,4.88
2023-01-08T04:04:53.945Z,5.72
2023-01-08T04:07:22.070Z,5.25
2023-01-08T04:09:49.903Z,5.20
2023-01-08T04:12:17.817Z,5.40
2023-01-08T04:14:47.066Z,5.63
2023-01-08T04:17:15.009Z,5.93
2023-01-08T04:19:43.093Z,5.18
2023-01-08T04:22:11.731Z,5.22
2023-01-08T04:24:39.654Z,5.18
2023-01-08T04:27:07.444Z,5.68
2023-01-08T04:29:35.285Z,5.95
2023-01-08T04:32:04.803Z,5.75
2023-01-08T04:34:32.691Z,5.85
2023-01-08T04:37:00.626Z,6.47
2023-01-08T04:39:28.717Z,5.70
2023-01-08T04:41:56.682Z,5.30
2023-01-08T04:44:24.612Z,6.18
2023-01-08T04:46:52.467Z,5.60
2023-01-08T04:49:21.722Z,5.90
2023-01-08T04:51:49.654Z,5.80
2023-01-08T04:54:17.674Z,5.60
2023-01-08T04:56:45.557Z,5.95
2023-01-08T04:59:13.456Z,5.65
2023-01-08T05:01:41.475Z,5.72
2023-01-08T05:04:09.383Z,5.47
2023-01-08T05:06:38.555Z,5.43
2023-01-08T05:09:06.503Z,5.70
2023-01-08T05:11:35.567Z,5.82
2023-01-08T05:14:03.446Z,5.82
2023-01-08T05:16:32.111Z,5.80
2023-01-08T05:19:00.033Z,6.13
2023-01-08T05:21:27.866Z,4.95
2023-01-08T05:23:57.129Z,5.93
2023-01-08T05:26:25.018Z,6.32
2023-01-08T05:28:52.913Z,5.90
2023-01-08T05:31:20.881Z,6.00
2023-01-08T05:33:48.784Z,5.70
2023-01-08T05:36:16.662Z,6.18
2023-01-08T05:38:44.563Z,5.50
2023-01-08T05:41:13.899Z,5.60
2023-01-08T05:43:41.767Z,6.05
2023-01-08T05:46:09.650Z,6.05
2023-01-08T05:48:37.950Z,5.13
2023-01-08T05:51:06.331Z,5.40
2023-01-08T05:53:34.372Z,5.35
2023-01-08T05:56:03.612Z,5.47
2023-01-08T05:58:33.270Z,4.70
2023-01-08T06:01:06.218Z,5.75
2023-01-08T06:03:34.122Z,5.03
2023-01-08T06:06:03.316Z,4.97
2023-01-08T06:08:32.232Z,5.10
2023-01-08T06:11:00.985Z,4.65
2023-01-08T06:13:28.992Z,4.68
2023-01-08T06:15:59.613Z,4.40
2023-01-08T06:18:27.850Z,4.30
2023-01-08T06:20:55.782Z,5.28
2023-01-08T06:23:23.626Z,4.72
2023-01-08T06:25:53.521Z,5.00
2023-01-08T06:28:21.419Z,4.50
2023-01-08T06:30:49.578Z,4.28
2023-01-08T06:33:21.587Z,4.28
2023-01-08T06:35:49.651Z,4.70
2023-01-08T06:38:19.222Z,4.50
2023-01-08T06:40:47.735Z,4.32
2023-01-08T06:43:16.093Z,3.90
2023-01-08T06:45:43.972Z,4.47
2023-01-08T06:48:11.829Z,4.45
2023-01-08T06:50:41.093Z,3.95
2023-01-08T06:53:08.970Z,4.75
2023-01-08T06:55:38.657Z,4.13
2023-01-08T06:58:06.629Z,4.10
2023-01-08T07:00:34.561Z,4.63
2023-01-08T07:03:02.575Z,4.38
2023-01-08T07:05:30.521Z,4.22
2023-01-08T07:07:59.728Z,3.95
2023-01-08T07:10:27.971Z,4.22
2023-01-08T07:12:55.820Z,4.47
2023-01-08T07:15:23.662Z,4.07
2023-01-08T07:17:52.901Z,4.15
2023-01-08T07:20:20.785Z,4.13
2023-01-08T07:22:48.647Z,4.15
2023-01-08T07:25:18.082Z,3.70
2023-01-08T07:27:46.141Z,4.00
2023-01-08T07:30:28.842Z,3.88
2023-01-08T07:33:00.203Z,4.28
2023-01-08T07:35:28.315Z,4.45
2023-01-08T07:37:56.802Z,4.30
2023-01-08T07:40:26.147Z,4.43
2023-01-08T07:43:00.568Z,4.25
2023-01-08T07:45:29.020Z,3.90
2023-01-08T07:47:58.050Z,3.72
2023-01-08T07:50:26.261Z,4.15
2023-01-08T07:52:54.178Z,3.85
2023-01-08T07:55:22.049Z,4.20
2023-01-08T07:57:51.341Z,3.92
2023-01-08T08:00:19.880Z,4.15
2023-01-08T08:02:47.807Z,4.18
2023-01-08T08:05:17.770Z,4.05
2023-01-08T08:07:45.696Z,4.30
2023-01-08T08:10:13.653Z,4.32
2023-01-08T08:12:41.535Z,4.05
2023-01-08T08:15:11.770Z,4.30
2023-01-08T08:17:39.645Z,4.47
2023-01-08T08:20:08.543Z,4.45
2023-01-08T08:22:36.411Z,4.30
2023-01-08T08:25:04.499Z,4.13
2023-01-08T08:27:32.356Z,4.40
2023-01-08T08:30:00.215Z,4.20
2023-01-08T08:32:29.480Z,4.68
2023-01-08T08:34:57.739Z,4.97
2023-01-08T08:37:25.641Z,4.47
2023-01-08T08:39:53.714Z,4.22
2023-01-08T08:42:21.649Z,4.00
2023-01-08T08:44:49.474Z,4.32
2023-01-08T08:47:17.312Z,3.70
2023-01-08T08:49:46.611Z,3.97
2023-01-08T08:52:14.468Z,4.07
2023-01-08T08:54:42.379Z,3.95
2023-01-08T08:57:10.741Z,3.60
2023-01-08T08:59:38.666Z,4.25
2023-01-08T09:02:07.126Z,4.75
2023-01-08T09:04:35.640Z,4.20
2023-01-08T09:07:04.891Z,4.18
2023-01-08T09:09:32.817Z,4.00
2023-01-08T09:12:00.870Z,3.60
2023-01-08T09:14:29.251Z,4.10
2023-01-08T09:16:57.162Z,4.05
2023-01-08T09:19:25.082Z,4.10
2023-01-08T09:21:53.053Z,4.55
2023-01-08T09:24:22.266Z,3.90
2023-01-08T09:26:50.104Z,3.88
2023-01-08T09:29:17.995Z,4.15
2023-01-08T09:31:46.704Z,4.10
2023-01-08T09:34:14.591Z,4.43
2023-01-08T09:36:42.462Z,4.00
2023-01-08T09:39:10.456Z,4.35
2023-01-08T09:41:46.260Z,4.40
2023-01-08T09:44:18.075Z,4.30
2023-01-08T09:46:47.918Z,4.05
2023-01-08T09:49:22.419Z,4.30
2023-01-08T09:51:50.626Z,4.10
2023-01-08T09:54:18.685Z,4.50
2023-01-08T09:56:49.077Z,4.35
2023-01-08T09:59:19.322Z,3.72
2023-01-08T10:01:48.738Z,4.60
2023-01-08T10:04:19.262Z,4.13
2023-01-08T10:06:52.975Z,3.75
2023-01-08T10:09:25.090Z,4.30
2023-01-08T10:11:56.438Z,3.53
2023-01-08T10:14:28.084Z,3.95
2023-01-08T10:16:59.936Z,4.03
2023-01-08T10:19:27.784Z,4.13
2023-01-08T10:21:55.842Z,4.22
2023-01-08T10:24:34.392Z,3.97
2023-01-08T10:27:14.020Z,4.15
2023-01-08T10:29:42.852Z,3.60
2023-01-08T10:32:15.858Z,4.70
2023-01-08T10:34:50.270Z,4.40
2023-01-08T10:37:25.228Z,4.03
2023-01-08T10:39:55.114Z,4.75
2023-01-08T10:42:25.307Z,4.55
2023-01-08T10:44:58.290Z,3.97
2023-01-08T10:47:28.068Z,4.63
2023-01-08T10:49:56.782Z,4.70
2023-01-08T10:52:27.588Z,4.35
2023-01-08T10:54:55.869Z,4.40
2023-01-08T10:57:27.814Z,4.85
2023-01-08T10:59:56.680Z,4.75
2023-01-08T11:02:38.131Z,4.70
2023-01-08T11:05:10.318Z,4.60
2023-01-08T11:07:40.265Z,4.63
2023-01-08T11:10:22.782Z,4.55
2023-01-08T11:12:55.641Z,4.60
2023-01-08T11:15:32.867Z,5.45
2023-01-08T11:18:22.644Z,4.70
2023-01-08T11:20:51.345Z,5.05
2023-01-08T11:23:22.675Z,4.35
2023-01-08T11:25:57.372Z,4.40
2023-01-08T11:28:34.302Z,5.07
2023-01-08T11:31:14.962Z,4.97
2023-01-08T11:33:44.118Z,5.15
2023-01-08T11:36:19.683Z,4.88
2023-01-08T11:38:47.938Z,4.22
2023-01-08T11:41:31.204Z,4.40
2023-01-08T11:44:15.095Z,4.75
2023-01-08T11:47:04.125Z,5.10
2023-01-08T11:49:48.366Z,4.90
2023-01-08T11:52:32.021Z,4.70
2023-01-08T11:57:44.667Z,4.53
2023-01-08T12:00:33.338Z,4.60
2023-01-08T12:03:04.332Z,4.53
2023-01-08T12:05:38.636Z,4.43
2023-01-08T12:08:08.556Z,4.72
2023-01-08T12:10:57.368Z,4.22
2023-01-08T12:13:51.211Z,4.85
2023-01-08T12:19:11.561Z,4.43
2023-01-08T12:21:51.332Z,4.47
2023-01-08T12:24:37.268Z,4.15
2023-01-08T12:27:13.561Z,4.50
2023-01-08T12:30:06.883Z,5.07
2023-01-08T12:32:43.214Z,4.93
2023-01-08T12:35:15.255Z,4.45
2023-01-08T12:37:51.864Z,4.53
2023-01-08T12:40:24.190Z,4.40
2023-01-08T12:43:00.491Z,4.90
2023-01-08T12:45:31.761Z,4.95
2023-01-08T12:48:07.433Z,4.70
2023-01-08T12:50:57.855Z,5.07
2023-01-08T12:53:37.668Z,4.88
2023-01-08T12:56:12.533Z,4.47
2023-01-08T12:58:54.887Z,4.32
2023-01-08T13:01:37.762Z,5.00
2023-01-08T13:04:10.326Z,5.03
2023-01-08T13:06:38.810Z,4.73
2023-01-08T13:09:06.758Z,4.57
2023-01-08T13:11:38.565Z,4.35
2023-01-08T13:14:09.047Z,5.05
2023-01-08T13:16:40.105Z,4.82
2023-01-08T13:19:24.790Z,4.97
2023-01-08T13:21:55.493Z,4.78
2023-01-08T13:24:32.029Z,5.63
2023-01-08T13:27:12.425Z,5.30
2023-01-08T13:29:42.700Z,5.28
2023-01-08T13:32:26.245Z,5.30
2023-01-08T13:35:21.640Z,5.03
2023-01-08T13:37:51.437Z,4.75
2023-01-08T13:40:37.631Z,5.05
2023-01-08T13:43:11.848Z,5.28
2023-01-08T13:45:40.488Z,5.95
2023-01-08T13:48:22.462Z,5.68
2023-01-08T13:50:52.530Z,5.38
2023-01-08T13:53:21.070Z,5.57
2023-01-08T13:55:56.966Z,5.47
2023-01-08T13:58:30.927Z,5.60
2023-01-08T14:01:01.215Z,6.22
2023-01-08T14:03:30.909Z,5.57
2023-01-08T14:06:09.115Z,5.10
2023-01-08T14:08:38.646Z,5.82
2023-01-08T14:11:06.751Z,5.65
2023-01-08T14:13:35.738Z,5.80
2023-01-08T14:16:06.875Z,5.70
2023-01-08T14:18:35.417Z,6.40
2023-01-08T14:21:03.933Z,5.97
2023-01-08T14:23:43.252Z,5.93
2023-01-08T14:26:21.375Z,6.10
2023-01-08T14:28:52.382Z,6.47
2023-01-08T14:31:28.856Z,4.93
2023-01-08T14:34:00.260Z,5.90
2023-01-08T14:36:28.991Z,6.63
2023-01-08T14:38:58.520Z,5.88
2023-01-08T14:41:54.497Z,5.88
2023-01-08T14:44:36.708Z,5.78
2023-01-08T14:47:06.250Z,6.13
2023-01-08T14:49:43.423Z,5.57
2023-01-08T14:52:13.448Z,6.10
2023-01-08T14:54:48.394Z,5.70
2023-01-08T14:57:18.148Z,5.75
2023-01-08T14:59:57.723Z,5.45
2023-01-08T15:02:35.053Z,5.85
2023-01-08T15:05:14.137Z,6.13
2023-01-08T15:07:56.653Z,6.32
2023-01-08T15:10:40.088Z,6.00
2023-01-08T15:13:21.961Z,5.70
2023-01-08T15:15:57.470Z,5.60
2023-01-08T15:18:26.496Z,6.22
2023-01-08T15:20:56.194Z,5.80
2023-01-08T15:23:36.009Z,6.85
2023-01-08T15:26:05.620Z,6.30
2023-01-08T15:28:34.177Z,6.70
2023-01-08T15:31:02.195Z,6.93
2023-01-08T15:33:30.366Z,6.20
2023-01-08T15:35:58.489Z,6.50
2023-01-08T15:38:26.348Z,6.40
2023-01-08T15:40:56.107Z,6.13
2023-01-08T15:43:24.560Z,6.43
2023-01-08T15:45:52.567Z,7.72
2023-01-08T15:48:20.847Z,6.38
2023-01-08T15:50:48.950Z,6.60
2023-01-08T15:53:23.262Z,6.72
2023-01-08T15:55:52.169Z,6.35
2023-01-08T15:58:23.431Z,6.65
2023-01-08T16:00:56.036Z,6.63
2023-01-08T16:03:25.529Z,6.93
2023-01-08T16:05:53.403Z,6.32
2023-01-08T16:08:21.333Z,6.25
2023-01-08T16:10:52.867Z,5.82
2023-01-08T16:13:21.677Z,6.72
2023-01-08T16:15:49.624Z,6.65
2023-01-08T16:18:18.991Z,6.47
2023-01-08T16:20:46.862Z,6.35
2023-01-08T16:23:14.790Z,6.30
2023-01-08T16:25:42.683Z,6.43
2023-01-08T16:28:10.555Z,6.60
2023-01-08T16:30:41.370Z,6.25
2023-01-08T16:33:09.277Z,6.55
2023-01-08T16:35:38.521Z,6.53
2023-01-08T16:38:06.431Z,6.55
2023-01-08T16:40:34.321Z,5.97
2023-01-08T16:43:03.546Z,6.50
2023-01-08T16:45:31.633Z,5.68
2023-01-08T16:47:59.532Z,6.05
2023-01-08T16:50:27.408Z,6.43
2023-01-08T16:52:56.655Z,6.00
2023-01-08T16:55:24.508Z,6.57
2023-01-08T16:57:54.564Z,6.03
2023-01-08T17:00:23.555Z,6.00
2023-01-08T17:02:51.433Z,6.20
2023-01-08T17:05:19.327Z,6.28
2023-01-08T17:07:47.210Z,6.65
2023-01-08T17:10:17.547Z,5.93
2023-01-08T17:12:45.420Z,6.00
2023-01-08T17:15:13.331Z,5.72
2023-01-08T17:17:41.742Z,5.60
2023-01-08T17:20:11.437Z,5.78
2023-01-08T17:22:39.317Z,5.43
2023-01-08T17:25:07.962Z,5.90
2023-01-08T17:27:37.585Z,6.22
2023-01-08T17:30:06.463Z,5.50
2023-01-08T17:32:34.340Z,5.05
2023-01-08T17:35:02.481Z,5.78
2023-01-08T17:37:30.868Z,6.38
2023-01-08T17:39:59.878Z,5.57
2023-01-08T17:42:28.305Z,5.85
2023-01-08T17:45:01.211Z,5.75
2023-01-08T17:47:29.212Z,6.55
2023-01-08T17:49:58.036Z,5.63
2023-01-08T17:52:27.274Z,5.45
2023-01-08T17:54:55.352Z,6.68
2023-01-08T17:57:23.735Z,5.90
2023-01-08T17:59:51.572Z,5.95
2023-01-08T18:02:20.915Z,5.82
2023-01-08T18:04:51.683Z,6.28
2023-01-08T18:07:19.712Z,5.90
2023-01-08T18:09:49.295Z,5.60
2023-01-08T18:12:17.291Z,6.13
2023-01-08T18:14:45.448Z,5.50
2023-01-08T18:17:13.327Z,5.43
2023-01-08T18:19:43.183Z,5.70
2023-01-08T18:22:11.094Z,5.53
2023-01-08T18:24:39.047Z,5.25
2023-01-08T18:27:10.703Z,5.32
2023-01-08T18:29:38.606Z,5.00
2023-01-08T18:32:08.610Z,5.03
2023-01-08T18:34:36.596Z,4.78
2023-01-08T18:37:06.065Z,5.22
2023-01-08T18:39:33.917Z,4.60
2023-01-08T18:42:19.431Z,4.50
2023-01-08T18:44:48.294Z,5.15
2023-01-08T18:47:16.161Z,5.60
2023-01-08T18:49:44.027Z,4.90
2023-01-08T18:52:14.139Z,5.80
2023-01-08T18:54:42.207Z,5.97
2023-01-08T18:57:10.088Z,5.30
2023-01-08T18:59:38.194Z,5.43
2023-01-08T19:02:06.404Z,5.40
2023-01-08T19:04:34.446Z,5.35
2023-01-08T19:07:02.295Z,6.32
2023-01-08T19:09:32.075Z,5.35
2023-01-08T19:12:00.001Z,5.90
2023-01-08T19:14:27.905Z,6.05
2023-01-08T19:16:56.468Z,5.75
2023-01-08T19:19:24.551Z,6.55
2023-01-08T19:21:52.424Z,6.07
2023-01-08T19:24:23.795Z,6.43
2023-01-08T19:26:53.102Z,6.35
2023-01-08T19:29:21.094Z,6.28
2023-01-08T19:31:49.026Z,5.70
2023-01-08T19:34:17.073Z,5.90
2023-01-08T19:36:48.056Z,6.22
2023-01-08T19:39:18.183Z,6.15
2023-01-08T19:42:05.620Z,6.03
2023-01-08T19:44:35.182Z,6.03
2023-01-08T19:47:03.176Z,6.45
2023-01-08T19:49:30.980Z,6.68
2023-01-08T19:51:58.882Z,6.35
2023-01-08T19:54:27.414Z,6.43
2023-01-08T19:56:55.988Z,6.22
2023-01-08T19:59:27.131Z,5.78
2023-01-08T20:01:58.142Z,6.60
2023-01-08T20:04:26.825Z,6.80
2023-01-08T20:06:54.808Z,7.25
2023-01-08T20:09:22.795Z,6.50
2023-01-08T20:11:50.841Z,6.97
2023-01-08T20:14:20.824Z,6.38
2023-01-08T20:16:49.077Z,7.18
2023-01-08T20:19:18.281Z,6.40
2023-01-08T20:21:46.490Z,6.50
2023-01-08T20:24:15.170Z,7.15
2023-01-08T20:26:45.111Z,7.13
2023-01-08T20:29:13.884Z,7.15
2023-01-08T20:31:42.453Z,6.93
2023-01-08T20:34:15.527Z,6.97
2023-01-08T20:36:46.418Z,7.45
2023-01-08T20:39:16.571Z,6.95
2023-01-08T20:41:50.352Z,7.88
2023-01-08T20:44:31.552Z,8.02
2023-01-08T20:46:59.523Z,8.30
2023-01-08T20:49:27.675Z,7.50
2023-01-08T20:51:59.631Z,8.27
2023-01-08T20:54:29.277Z,7.73
2023-01-08T20:56:58.185Z,7.68
2023-01-08T20:59:26.724Z,8.60
2023-01-08T21:01:54.721Z,7.68
2023-01-08T21:04:22.982Z,7.40
2023-01-08T21:06:50.990Z,8.73
2023-01-08T21:09:20.249Z,7.95
2023-01-08T21:11:48.174Z,8.70
2023-01-08T21:14:16.012Z,8.43
2023-01-08T21:16:43.940Z,7.50
2023-01-08T21:19:11.925Z,8.00
2023-01-08T21:21:41.023Z,8.73
2023-01-08T21:24:12.016Z,9.05
2023-01-08T21:26:41.404Z,8.07
2023-01-08T21:29:09.833Z,8.23
2023-01-08T21:31:39.025Z,8.90
2023-01-08T21:34:08.549Z,8.07
2023-01-08T21:36:36.992Z,9.27
2023-01-08T21:39:05.251Z,8.35
2023-01-08T21:41:50.474Z,8.48
2023-01-08T21:44:39.144Z,8.13
2023-01-08T21:47:08.954Z,8.20
2023-01-08T21:49:37.147Z,8.75
2023-01-08T21:52:23.181Z,8.30
2023-01-08T21:54:51.802Z,8.32
2023-01-08T21:57:19.665Z,8.18
2023-01-08T21:59:51.152Z,8.90
2023-01-08T22:02:21.930Z,7.35
2023-01-08T22:04:50.223Z,7.50
2023-01-08T22:07:18.338Z,7.68
2023-01-08T22:09:46.194Z,6.82
2023-01-08T22:12:14.890Z,7.72
2023-01-08T22:14:42.766Z,7.60
2023-01-08T22:17:12.163Z,6.43
2023-01-08T22:19:40.748Z,6.57
2023-01-08T22:22:10.873Z,7.18
2023-01-08T22:24:39.555Z,6.50
2023-01-08T22:27:08.540Z,6.47
2023-01-08T22:29:36.729Z,5.95
2023-01-08T22:32:04.966Z,6.25
2023-01-08T22:34:35.091Z,5.90
2023-01-08T22:37:03.324Z,6.13
2023-01-08T22:39:31.393Z,5.70
2023-01-08T22:41:59.272Z,5.78
2023-01-08T22:44:27.162Z,6.28
2023-01-08T22:46:55.148Z,5.35
2023-01-08T22:49:23.062Z,5.35
2023-01-08T22:51:52.331Z,5.45
2023-01-08T22:54:20.380Z,5.45
2023-01-08T22:56:48.235Z,5.78
2023-01-08T22:59:16.107Z,5.32
2023-01-08T23:01:44.206Z,5.15
2023-01-08T23:04:12.181Z,5.60
2023-01-08T23:06:40.007Z,6.28
2023-01-08T23:09:09.264Z,5.93
2023-01-08T23:11:37.260Z,6.63
2023-01-08T23:14:05.152Z,6.18
2023-01-08T23:16:33.096Z,5.68
2023-01-08T23:19:02.104Z,5.75
2023-01-08T23:21:30.045Z,5.43
2023-01-08T23:23:57.920Z,5.93
2023-01-08T23:26:29.132Z,6.20
2023-01-08T23:28:58.890Z,5.97
2023-01-08T23:31:28.671Z,5.43
2023-01-08T23:33:56.679Z,5.35
2023-01-08T23:36:25.578Z,5.63
2023-01-08T23:38:55.561Z,5.63
2023-01-08T23:41:33.060Z,6.10
2023-01-08T23:44:05.775Z,6.28
2023-01-08T23:46:33.851Z,7.07
2023-01-08T23:49:01.997Z,7.10
2023-01-08T23:51:30.415Z,7.13
2023-01-08T23:53:58.310Z,6.53
2023-01-08T23:56:26.303Z,7.22
2023-01-08T23:58:54.782Z,6.28
